• Join FlightAware (Why Join?)
  • Login
  • US Flag 
06:24PM EST


 

Airport Tracker/Info


-or-


 

Live Flight TrackerFlight Track Log ✈ N690TW ✈ 12-Mar-2014 ✈ KGJT - KBJC

Flight Track Log - Related Links

Times and Time Zones

All times are in EDT time to prevent confusion due to time zone crossing. See the N690TW flight status page for this flight to view local times or setup timezone preferences in your user account.

Time Position Orientation Groundspeed Altitude Reporting Facility
EDT Latitude Longitude Course Direction KTS MPH feet Rate Location/Type
10:08PM 39.0833 -108.5000 88° East 162 186 6,700  Level Denver TRACON
10:09PM 39.0847 -108.4453 88° East 159 183 8,700 1,860 Climbing Denver Center
10:10PM 39.0914 -108.3858 82° East 166 191 10,500 1,740 Climbing Denver Center
10:12PM 39.0981 -108.3208 82° East 167 192 12,400 1,800 Climbing Denver Center
10:13PM 39.1058 -108.2581 81° East 174 200 14,300 1,800 Climbing Denver Center
10:14PM 39.1136 -108.1917 81° East 177 204 16,200 1,620 Climbing Denver Center
10:15PM 39.1203 -108.1294 82° East 181 208 17,700 1,380 Climbing Denver Center
10:16PM 39.1286 -108.0542 82° East 189 217 19,100 1,380 Climbing Denver Center
10:17PM 39.1372 -107.9878 80° East 191 220 20,600 1,440 Climbing Denver Center
10:18PM 39.1442 -107.9131 83° East 194 223 22,100 1,440 Climbing Denver Center
10:19PM 39.1531 -107.8414 81° East 200 230 23,600 1,320 Climbing Denver Center
10:20PM 39.1608 -107.7697 82° East 204 235 24,900 1,140 Climbing Denver Center
10:21PM 39.1703 -107.6839 82° East 212 244 26,000 480 Climbing Denver Center
10:22PM 39.1797 -107.5961 82° East 251 289 26,000  Level Denver Center
10:23PM 39.1914 -107.4867 82° East 272 313 26,000  Level Denver Center
10:24PM 39.2019 -107.3919 82° East 276 318 26,000  Level Denver Center
10:25PM 39.2147 -107.2792 82° East 281 323 26,000  Level Denver Center
10:26PM 39.2250 -107.1828 82° East 282 325 26,000  Level Denver Center
10:27PM 39.2444 -107.0725 77° East 282 325 26,000  Level Denver Center
10:28PM 39.2764 -106.9803 66° East 288 331 26,000  Level Denver Center
10:29PM 39.3086 -106.8722 69° East 288 331 26,000  Level Denver Center
10:30PM 39.3378 -106.7806 68° East 288 331 26,000  Level Denver Center
10:31PM 39.3667 -106.6869 68° East 290 334 26,000  Level Denver Center
10:32PM 39.3997 -106.5769 69° East 292 336 26,000  Level Denver Center
10:33PM 39.4250 -106.4936 69° East 292 336 26,000  Level Denver Center
10:34PM 39.4611 -106.3767 68° East 292 336 26,000 -240 Level Denver Center
10:35PM 39.4900 -106.2797 69° East 291 335 25,600 -1,020 Descending Denver Center
10:36PM 39.5192 -106.1831 69° East 291 335 23,900 -1,680 Descending Denver Center
10:37PM 39.5483 -106.0853 69° East 286 329 22,300 -1,620 Descending Denver Center
10:38PM 39.5772 -105.9889 69° East 286 329 20,600 -1,680 Descending Denver Center
10:39PM 39.6075 -105.8886 69° East 294 338 18,900 -1,680 Descending Denver Center
10:40PM 39.6403 -105.7783 69° East 305 351 17,200 -960 Descending Denver Center
10:41PM 39.6669 -105.6936 68° East 303 349 17,000 -600 Descending Denver Center
10:42PM 39.7050 -105.5789 67° East 286 329 16,000 -900 Descending Denver Center
10:44PM 39.7547 -105.5003 51° Northeast 282 325 15,100 -1,020 Descending Denver Center
10:45PM 39.8078 -105.4131 52° Northeast 283 326 14,000 -1,560 Descending Denver Center
10:46PM 39.8494 -105.3408 53° Northeast 251 289 12,000 -2,040 Descending Denver Center
10:47PM 39.8875 -105.2753 53° Northeast 230 265 9,900 -2,040 Descending Denver Center
10:48PM 39.9264 -105.2078 53° Northeast 221 254 7,900 -1,800 Descending Denver Center
10:49PM 39.9300 -105.1575 85° East 155 178 6,300 -1,200 Descending Denver Center
10:50PM 39.9136 -105.1261 124° Southeast 107 123 5,600 -720 Descending Denver Center
10:52PM 39.9000 -105.1167 66° East  Level FlightAware Approximate